Date,TemperatureHighF,TemperatureAvgF,TemperatureLowF,DewpointHighF,DewpointAvgF,DewpointLowF,HumidityHigh,HumidityAvg,HumidityLow,PressureMaxIn,PressureMinIn,WindSpeedMaxMPH,WindSpeedAvgMPH,GustSpeedMaxMPH,PrecipitationSumIn
2013-1-1,40.9,34.0,28.4,34.7,30.5,26.5,93,87,76,30.12,30.02,2,0,2,0.00
2013-1-2,38.2,31.3,26.1,32.9,27.2,23.1,91,85,76,30.02,29.86,3,0,3,0.00
2013-1-3,41.2,35.1,25.6,33.0,29.7,22.5,89,81,72,29.92,29.81,2,0,2,0.02
2013-1-4,50.8,44.5,39.2,46.8,41.9,36.8,95,91,86,30.00,29.85,2,0,2,0.00
2013-1-5,43.2,40.0,38.5,40.2,36.0,34.7,90,86,81,29.89,29.84,2,0,2,0.00
2013-1-6,49.5,45.1,38.7,45.5,42.3,36.3,93,90,85,29.92,29.78,5,0,5,0.02
2013-1-7,52.4,49.2,47.0,49.2,47.0,44.6,95,92,89,29.91,29.72,9,1,9,0.10
2013-1-8,60.1,53.0,49.1,54.6,49.8,46.9,94,89,81,29.89,29.65,9,2,9,0.03
2013-1-9,39.8,39.1,38.5,37.1,36.6,35.8,92,90,89,29.68,29.65,3,0,3,0.02
2013-1-10,46.8,40.8,36.5,43.1,38.4,34.2,94,91,84,29.80,29.67,3,0,3,0.10
2013-1-11,40.5,34.0,28.8,36.8,31.2,26.4,95,90,80,29.99,29.79,2,0,2,0.01
2013-1-12,37.6,31.9,26.8,35.0,29.9,25.3,94,92,88,30.07,30.00,2,0,2,0.00
2013-1-13,36.7,33.4,29.9,33.1,30.0,27.5,93,87,84,30.17,30.07,2,0,2,0.00
2013-1-14,39.4,34.2,29.5,34.9,30.8,27.0,90,87,83,30.25,30.19,3,0,3,0.00
2013-1-15,43.4,39.3,35.3,39.5,36.3,32.8,92,89,84,30.33,30.22,2,0,2,0.00
2013-1-16,38.2,36.4,35.1,35.7,34.1,32.9,93,91,89,30.32,30.19,2,0,2,0.00
2013-1-17,37.4,35.2,34.0,35.3,33.4,32.4,95,93,91,30.13,30.01,2,0,2,0.01
2013-1-18,38.7,35.4,32.9,36.2,33.4,31.2,95,93,90,30.01,29.96,2,0,2,0.00
2013-1-19,36.4,33.6,31.3,34.2,31.6,29.8,94,93,91,30.03,29.96,2,0,2,0.00
2013-1-20,36.0,32.8,30.6,33.8,31.0,29.0,94,93,90,30.04,29.93,2,0,2,0.00
2013-1-21,35.1,30.7,27.7,32.9,28.9,25.9,95,93,90,29.95,29.84,2,0,2,0.00
2013-1-22,36.2,32.1,28.6,34.0,30.2,27.0,94,93,91,29.86,29.63,2,0,2,0.00
2013-1-23,38.5,37.0,34.2,36.6,35.1,32.3,94,93,91,29.84,29.57,2,0,2,0.05
2013-1-24,43.0,40.0,34.9,41.1,38.7,33.3,96,95,93,29.89,29.79,3,0,3,0.20
2013-1-25,53.1,46.2,38.2,51.9,45.0,36.5,97,96,94,29.82,29.65,2,0,2,0.17
2013-1-26,47.7,42.9,39.2,45.6,41.3,37.6,96,94,90,29.74,29.65,3,0,3,0.33
2013-1-27,46.4,43.8,38.5,44.1,41.8,36.9,96,92,89,29.85,29.76,4,1,4,0.08
2013-1-28,46.3,44.2,41.4,44.6,42.6,40.1,95,94,93,29.91,29.83,3,0,3,0.07
2013-1-29,49.9,47.2,43.4,47.0,44.8,41.0,95,91,87,30.19,30.01,4,0,4,0.05
2013-1-30,50.8,47.9,44.6,47.6,45.4,42.8,93,91,88,30.18,30.13,4,1,4,0.01
2013-1-31,55.4,50.5,44.3,50.2,46.9,42.7,96,88,78,30.13,30.01,2,0,2,0.01
2013-2-1,48.6,44.1,39.4,44.6,41.4,36.8,95,90,85,30.02,29.93,1,0,1,0.00
2013-2-2,46.4,42.5,37.4,44.3,40.6,36.1,95,93,90,30.00,29.94,4,0,4,0.00
2013-2-3,53.1,46.7,41.8,50.0,44.5,40.2,95,92,86,30.01,29.93,2,0,2,0.00
2013-2-4,54.2,48.0,41.0,48.8,44.8,39.4,95,89,79,29.85,29.62,2,0,2,0.00
2013-2-5,50.8,46.3,44.3,47.9,43.9,41.6,93,91,88,29.75,29.61,6,1,6,0.21
2013-2-6,49.0,46.9,45.0,44.4,43.6,42.6,92,88,83,29.78,29.54,5,1,5,0.02
2013-2-7,48.4,40.7,36.2,43.7,37.8,33.7,93,89,83,29.78,29.54,4,0,4,0.06
2013-2-8,44.1,40.5,36.7,41.1,37.5,34.9,95,89,81,29.96,29.78,2,0,2,0.00
2013-2-9,48.4,45.6,39.8,45.5,42.1,37.6,93,88,81,29.99,29.94,3,0,3,0.06
2013-2-10,49.3,47.2,44.5,45.0,43.2,41.0,94,86,80,30.02,29.97,2,0,2,0.01
2013-2-11,49.0,46.1,42.8,44.2,41.8,39.2,88,85,79,30.07,30.00,3,0,3,0.00
2013-2-12,52.9,48.9,47.2,49.4,46.0,44.0,91,89,86,30.16,30.07,5,1,5,0.00
2013-2-13,56.2,51.3,48.6,50.4,46.9,43.8,90,85,81,30.19,30.11,4,0,4,0.00
2013-2-14,57.2,47.9,38.5,48.0,43.3,36.1,94,85,71,30.23,30.14,3,0,3,0.00
2013-2-15,50.2,46.4,43.7,46.1,43.5,41.3,92,89,84,30.14,29.91,3,0,3,0.00
2013-2-16,55.4,47.5,38.0,49.0,43.0,34.8,94,85,69,29.97,29.92,8,1,8,0.01
2013-2-17,51.1,48.0,37.8,42.9,40.3,34.8,92,75,64,29.97,29.80,2,0,2,0.00
2013-2-18,45.7,42.7,35.8,40.4,38.5,33.1,91,85,77,29.80,29.41,4,0,4,0.05
2013-2-19,47.0,43.0,40.9,42.3,39.9,37.9,92,89,83,29.65,29.36,5,0,5,0.12
2013-2-20,48.4,42.5,38.5,44.1,39.8,36.4,93,90,85,29.79,29.64,4,0,4,0.12
2013-2-21,48.1,44.4,38.5,44.4,41.5,36.6,94,89,85,29.91,29.77,7,1,7,0.05
2013-2-22,47.5,46.0,44.6,43.8,42.4,41.7,91,87,82,29.88,29.72,12,3,12,0.04
2013-2-23,50.2,45.6,35.3,43.6,39.3,31.7,93,79,65,30.12,29.99,6,1,6,0.01
2013-2-24,52.6,46.7,35.3,41.4,38.5,32.1,93,74,58,30.12,29.82,6,1,6,0.00
2013-2-25,49.0,42.8,38.7,44.3,39.2,35.3,90,87,80,30.07,29.82,4,0,4,0.20
2013-2-26,45.7,39.4,32.8,41.0,36.0,30.7,93,88,78,30.07,29.93,4,0,4,0.01
2013-2-27,50.8,44.8,40.1,46.2,41.4,36.5,90,88,83,29.99,29.92,5,0,5,0.04
2013-2-28,58.0,54.5,48.8,54.1,51.2,46.3,91,89,86,30.11,29.91,7,1,7,0.02
2013-3-1,59.4,54.4,50.8,54.1,50.7,47.6,91,87,78,30.14,29.99,4,0,4,0.00
2013-3-2,57.8,54.3,50.8,53.3,50.2,47.3,92,86,78,30.00,29.86,3,0,3,0.01
2013-3-3,52.9,45.5,35.6,47.3,36.6,32.7,91,72,53,30.00,29.89,3,0,3,0.00
2013-3-4,47.2,40.1,33.3,39.2,35.4,30.3,91,83,73,29.91,29.60,2,0,2,0.00
2013-3-5,52.0,46.0,40.0,46.8,43.0,35.6,92,89,80,29.60,29.34,6,1,6,0.32
2013-3-6,46.4,44.1,42.7,44.3,41.7,39.6,94,91,87,29.65,29.24,2,0,2,0.32
2013-3-7,52.7,42.2,33.8,43.9,37.7,31.5,94,85,59,29.73,29.65,3,0,3,0.00
2013-3-8,57.4,43.9,34.4,43.6,37.9,31.4,93,81,55,29.86,29.69,2,0,2,0.00
2013-3-9,59.8,50.8,36.4,46.5,41.8,34.2,93,72,55,30.17,29.86,5,1,5,0.00
2013-3-10,57.4,51.0,37.8,48.5,44.4,34.8,90,78,69,30.17,30.07,5,1,5,0.00
2013-3-11,59.8,51.9,49.0,52.2,47.9,45.7,90,86,76,30.09,29.93,1,0,1,0.00
2013-3-12,62.3,52.8,47.0,52.7,47.8,45.2,94,84,70,29.94,29.83,2,0,2,0.00
2013-3-13,65.9,57.8,48.1,54.4,50.4,44.7,89,77,63,29.89,29.76,4,0,4,0.00
2013-3-14,60.8,58.4,56.3,50.6,48.7,47.5,81,70,63,29.85,29.77,2,0,2,0.00
2013-3-15,66.6,58.1,51.8,53.0,49.9,46.3,90,75,58,29.91,29.84,2,0,2,0.00
2013-3-16,53.1,49.3,42.5,48.4,44.7,37.6,89,84,78,29.86,29.72,2,1,2,0.11
2013-3-17,51.5,45.6,39.1,42.5,38.6,35.3,89,77,57,30.00,29.87,4,1,4,0.00
2013-3-18,54.0,49.7,46.6,38.6,36.9,35.7,67,61,56,29.85,29.83,0,0,0,0.00
2013-3-19,49.9,45.5,40.7,46.2,41.6,36.2,91,86,81,29.73,29.37,1,0,1,0.43
2013-3-20,53.3,49.1,43.0,51.8,45.3,38.5,95,87,78,29.81,29.26,8,2,8,0.28
2013-3-21,49.7,44.0,38.2,43.4,38.0,34.8,92,80,64,30.00,29.93,4,1,4,0.03
2013-3-22,50.2,42.5,32.8,40.2,36.4,30.2,93,79,64,30.05,30.00,2,0,2,0.01
2013-3-23,54.4,48.8,42.7,41.0,36.5,33.0,77,63,54,30.04,29.94,3,0,3,0.00
2013-3-24,58.0,49.9,39.6,43.7,39.7,33.5,83,69,54,29.94,29.74,4,0,4,0.00
2013-3-25,58.9,47.8,41.0,43.9,38.8,35.6,82,71,58,29.75,29.60,2,0,2,0.00
2013-3-26,59.0,51.5,47.0,51.2,46.4,41.0,90,83,67,29.70,29.63,2,0,2,0.04
2013-3-27,64.8,58.5,50.9,53.4,51.0,47.6,89,77,63,29.66,29.58,5,1,5,0.16
2013-3-28,66.8,57.9,49.0,54.7,51.0,47.0,94,79,55,29.79,29.66,6,0,6,0.09
2013-3-29,65.7,58.0,50.6,56.3,52.2,48.0,92,81,67,29.88,29.79,4,0,4,0.01
2013-3-30,74.2,65.1,50.2,56.9,52.9,46.7,89,66,49,29.82,29.63,4,0,4,0.00
2013-3-31,74.5,65.7,50.2,58.1,53.9,46.1,88,67,51,29.69,29.60,9,1,9,0.01
2013-4-1,61.6,58.3,55.8,54.0,52.1,50.6,84,80,73,29.85,29.68,4,0,4,0.00
2013-4-2,68.0,59.0,50.8,54.9,51.0,47.0,88,76,61,29.89,29.79,4,0,4,0.00
2013-4-3,65.5,55.2,44.3,55.9,49.7,41.3,91,82,70,29.82,29.61,2,0,2,0.00
2013-4-4,64.4,58.7,54.5,57.1,51.9,49.8,85,78,75,29.57,29.47,7,1,7,0.17
2013-4-5,61.2,56.2,53.6,54.7,51.7,50.0,91,85,74,29.65,29.53,8,2,8,0.13
2013-4-6,60.7,55.0,50.2,53.1,49.9,47.6,92,83,67,29.70,29.45,8,1,8,0.75
2013-4-7,54.4,50.8,45.4,48.8,44.5,39.9,92,79,67,29.63,29.45,10,2,10,0.14
2013-4-8,56.0,48.6,42.3,47.6,43.4,39.6,92,82,70,29.95,29.62,3,0,3,0.02
2013-4-9,54.4,46.8,42.1,47.8,43.1,39.4,91,87,78,30.04,29.95,3,0,3,0.00
2013-4-10,65.5,56.5,45.0,56.1,48.6,38.5,89,76,60,30.02,29.85,8,2,8,0.04
2013-4-11,61.4,51.6,41.2,46.4,42.7,38.3,90,73,54,30.02,29.85,2,0,2,0.00
2013-4-12,60.7,52.0,38.5,49.5,44.2,34.8,89,75,64,29.86,29.56,5,1,5,0.00
2013-4-13,55.8,49.4,43.2,45.6,40.2,36.3,85,71,54,29.80,29.61,6,1,6,0.07
2013-4-14,54.4,48.3,43.0,47.4,43.2,37.0,90,83,72,29.80,29.61,6,1,6,0.36
2013-4-15,56.9,49.1,40.5,44.7,40.8,38.1,92,74,54,29.84,29.64,3,0,3,0.08
2013-4-16,60.8,51.0,38.9,46.1,41.7,35.3,90,72,51,30.05,29.84,5,0,5,0.00
2013-4-17,58.5,49.2,38.9,47.5,42.2,35.5,89,78,61,30.17,30.05,3,0,3,0.00
2013-4-18,67.0,58.6,43.9,51.0,47.4,33.7,88,67,54,30.16,30.02,5,1,5,0.00
2013-4-19,64.3,56.0,50.2,56.2,50.2,44.9,92,81,64,30.03,29.88,7,1,7,0.15
2013-4-20,63.7,55.4,47.7,50.1,47.1,41.7,89,75,54,30.03,29.93,4,0,4,0.00
2013-4-21,61.6,56.5,47.3,50.9,48.2,41.5,87,74,66,29.98,29.91,5,1,5,0.00
2013-4-22,73.8,59.1,44.6,47.6,42.4,35.6,86,57,34,30.07,29.94,3,1,3,0.00
2013-4-23,79.4,61.0,41.0,46.3,39.0,33.0,76,46,30,30.01,29.79,4,0,4,0.00
2013-4-24,81.2,66.3,47.9,42.8,39.3,34.6,63,39,23,29.89,29.66,4,0,4,0.00
2013-4-25,81.5,65.6,44.3,50.3,45.9,36.1,77,51,33,29.80,29.70,3,0,3,0.00
2013-4-26,91.8,67.5,46.3,56.8,48.1,39.3,83,53,24,29.92,29.80,3,0,3,0.00
2013-4-27,74.5,60.9,45.9,50.6,42.2,32.7,85,55,23,29.94,29.87,8,1,8,0.00
2013-4-28,74.2,61.1,53.5,53.6,47.8,42.8,79,63,37,29.97,29.81,6,1,6,0.00
2013-4-29,65.3,57.1,46.4,49.9,40.8,33.8,85,56,36,29.90,29.80,8,1,8,0.02
2013-4-30,70.2,54.0,36.0,43.3,37.6,30.8,85,56,34,30.07,29.90,5,0,5,0.00
2013-5-1,75.2,59.1,39.2,44.0,40.2,34.2,83,52,31,30.17,30.07,5,0,5,0.00
2013-5-2,83.3,69.3,47.9,46.9,42.8,35.9,63,40,25,30.09,29.89,4,0,4,0.00
2013-5-3,91.1,65.7,47.7,52.0,44.8,38.0,73,49,25,29.96,29.77,5,0,5,0.00
2013-5-4,92.9,78.3,63.7,52.5,43.7,35.8,58,31,17,29.81,29.53,5,1,5,0.00
2013-5-5,98.5,77.4,60.3,50.8,44.8,37.3,48,33,19,29.56,29.33,6,0,6,0.00
2013-5-6,84.6,70.6,53.1,57.4,52.7,43.7,77,55,35,29.57,29.40,7,1,7,0.00
2013-5-7,79.2,64.4,49.1,57.9,51.3,44.0,86,64,42,29.68,29.55,6,1,6,0.00
2013-5-8,84.6,62.1,46.4,61.4,51.7,41.6,87,70,42,29.83,29.68,4,0,4,0.00
2013-5-9,93.6,70.2,48.4,62.5,55.3,44.4,89,62,35,29.87,29.73,4,0,4,0.00
2013-5-10,90.2,76.7,63.5,62.2,56.8,51.2,65,51,37,29.86,29.77,2,0,2,0.00
2013-5-11,93.4,75.9,58.7,64.5,59.1,51.2,81,58,34,29.86,29.68,4,0,4,0.00
2013-5-12,79.2,67.3,60.1,63.5,57.6,54.3,83,72,47,29.81,29.74,6,1,6,0.00
2013-5-13,71.5,64.2,55.6,58.5,52.8,46.1,89,68,49,29.89,29.74,11,2,11,0.01
2013-5-14,79.9,62.2,47.5,50.0,45.0,39.1,86,57,32,29.90,29.76,4,0,4,0.00
2013-5-15,66.8,59.2,50.8,54.9,50.0,42.9,79,72,53,29.80,29.71,4,0,4,0.11
2013-5-16,66.8,61.0,56.2,57.7,53.9,49.1,89,78,65,29.71,29.63,6,1,6,0.19
2013-5-17,68.4,61.1,51.5,54.5,50.3,45.4,87,68,52,29.77,29.67,5,1,6,0.04
2013-5-18,66.2,59.3,52.2,56.2,52.1,45.7,87,77,67,29.94,29.77,5,1,5,0.04
2013-5-19,79.6,64.2,54.4,55.5,51.3,46.6,88,64,42,30.08,29.94,4,0,4,0.00
2013-5-20,86.4,60.2,47.3,54.1,47.7,41.4,88,67,30,30.01,29.61,5,0,5,0.00
2013-5-21,58.0,51.5,44.3,52.3,45.8,40.2,88,81,58,29.71,29.53,4,0,4,0.86
2013-5-22,58.0,51.9,44.3,51.9,46.8,40.3,91,83,77,29.70,29.63,8,2,8,0.10
2013-5-23,60.5,54.3,48.1,54.7,48.9,44.1,89,82,69,29.71,29.67,7,1,7,0.28
2013-5-24,63.4,57.7,49.3,51.8,49.5,46.5,90,75,63,29.77,29.69,6,2,6,0.08
2013-5-25,78.5,63.6,49.5,56.5,51.2,45.9,88,66,46,29.77,29.61,5,1,5,0.00
2013-5-26,69.1,62.2,54.4,56.1,52.2,47.0,90,70,57,29.73,29.64,11,1,11,0.00
2013-5-27,72.0,62.0,54.2,62.7,55.5,47.0,92,80,59,29.69,29.44,10,2,10,0.00
2013-5-28,70.9,63.0,54.5,55.5,51.4,47.2,89,67,48,29.63,29.48,8,1,8,0.00
2013-5-29,68.8,60.6,54.7,56.3,52.2,45.9,92,75,54,29.73,29.33,7,2,7,0.00
2013-5-30,70.6,61.3,52.2,54.2,49.4,46.0,85,66,50,29.91,29.73,6,1,6,0.00
2013-5-31,59.9,59.9,59.9,47.7,47.7,47.7,64,64,64,29.91,29.91,0,0,0,0.00
2013-6-1,88.0,70.2,48.1,62.6,55.1,43.7,88,61,39,29.90,29.70,4,0,4,0.00
2013-6-2,81.5,68.6,57.1,58.5,54.1,51.5,82,61,41,29.76,29.69,4,0,5,0.00
2013-6-3,91.1,68.2,50.6,59.0,53.5,46.4,88,62,33,29.78,29.68,6,0,6,0.00
2013-6-4,96.8,71.5,53.3,60.8,53.9,47.0,80,57,26,29.76,29.63,5,0,5,0.00
2013-6-5,98.3,76.6,56.0,62.5,57.1,50.4,85,54,30,29.75,29.63,5,0,5,0.00
2013-6-6,90.4,73.9,59.4,63.3,58.1,51.6,82,59,38,29.73,29.64,5,0,5,0.00
2013-6-7,90.0,69.9,53.8,63.5,53.1,47.2,81,58,32,29.81,29.72,3,0,3,0.00
2013-6-8,92.5,68.3,53.8,58.2,51.8,47.7,85,59,26,29.84,29.71,5,0,5,0.00
2013-6-9,85.9,66.6,54.5,54.9,50.7,47.3,79,58,33,29.77,29.63,4,0,4,0.00
2013-6-10,85.0,65.3,49.1,54.4,47.6,43.7,82,55,33,29.67,29.56,6,1,6,0.00
2013-6-11,71.8,62.6,55.1,52.2,47.5,44.3,73,59,42,29.83,29.71,6,1,6,0.00
2013-6-12,67.7,61.7,50.8,52.6,48.8,44.7,83,64,51,29.87,29.82,5,1,5,0.00
2013-6-13,66.1,59.3,51.8,59.1,53.2,46.3,88,80,66,29.98,29.87,5,1,5,0.00
2013-6-14,82.4,67.2,51.7,57.6,53.4,47.0,89,63,42,29.98,29.67,4,0,4,0.00
2013-6-15,88.0,71.4,51.1,61.2,55.5,47.0,87,60,33,29.69,29.58,4,1,4,0.00
2013-6-16,80.6,67.2,51.3,60.3,55.1,46.9,88,67,49,29.80,29.69,5,0,5,0.00
2013-6-17,79.2,64.4,50.9,56.6,52.0,46.3,87,66,40,29.80,29.64,8,1,8,0.00
2013-6-18,72.5,61.8,51.5,59.1,51.0,46.1,87,68,53,29.70,29.62,7,1,7,0.00
2013-6-19,67.3,59.5,50.9,58.9,51.4,45.6,88,75,59,29.79,29.63,7,1,7,0.00
2013-6-20,77.2,63.9,53.6,59.9,53.7,49.1,89,71,42,29.81,29.74,7,1,7,0.00
2013-6-21,82.4,67.3,55.3,57.2,53.4,49.0,85,63,39,29.85,29.78,5,0,5,0.00
2013-6-22,90.7,77.0,63.0,59.5,54.9,48.0,78,49,28,29.79,29.53,4,1,4,0.00
2013-6-23,78.1,70.3,63.2,64.4,61.7,48.8,86,75,59,29.55,29.33,4,0,4,0.00
2013-6-24,70.6,64.6,58.0,61.2,56.0,53.3,86,74,61,29.40,29.34,8,1,8,0.00
2013-6-25,72.4,66.5,60.3,64.1,59.2,55.3,90,78,63,29.53,29.39,5,1,5,0.00
2013-6-26,81.4,70.6,60.8,64.0,60.7,56.0,91,72,51,29.70,29.53,7,1,7,0.00
2013-6-27,91.3,77.9,61.6,67.6,63.7,58.1,89,63,45,29.81,29.70,5,1,6,0.00
2013-6-28,96.1,79.4,60.8,70.8,63.5,57.0,89,62,33,29.81,29.69,5,1,5,0.00
2013-6-29,103.5,82.1,62.8,67.2,62.1,56.9,82,53,30,29.78,29.62,3,0,3,0.00
2013-6-30,103.9,84.4,62.5,69.6,65.4,57.5,86,55,31,29.63,29.50,4,0,4,0.00
2013-7-1,105.1,82.9,64.1,74.3,66.6,58.2,83,60,36,29.64,29.57,3,0,3,0.00
2013-7-2,98.3,82.8,64.1,70.7,64.5,58.5,84,57,34,29.74,29.62,5,0,5,0.00
2013-7-3,101.2,76.9,62.3,59.9,53.4,42.9,79,48,23,29.79,29.67,5,0,5,0.00
2013-7-4,90.0,70.7,55.4,60.8,54.2,49.7,81,57,36,29.81,29.67,7,1,7,0.00
2013-7-5,90.4,68.0,53.1,60.0,52.7,46.6,81,60,33,29.74,29.59,5,0,5,0.00
2013-7-6,93.1,72.6,55.1,64.1,57.1,49.0,81,60,36,29.64,29.51,5,0,5,0.00
2013-7-7,90.9,72.8,55.8,61.7,57.2,50.7,86,61,33,29.63,29.53,5,0,5,0.00
2013-7-8,93.1,76.9,63.4,60.6,57.5,54.9,75,53,32,29.75,29.60,5,1,5,0.00
2013-7-9,104.4,79.1,57.8,64.7,60.0,52.2,84,56,26,29.74,29.62,4,0,4,0.00
2013-7-10,92.2,73.1,58.0,60.0,56.1,52.2,82,58,33,29.73,29.57,5,0,5,0.00
2013-7-11,92.2,70.8,54.5,55.4,50.9,46.6,78,52,25,29.75,29.60,4,0,4,0.00
2013-7-12,84.2,67.4,53.6,53.6,49.5,46.1,77,55,32,29.76,29.64,6,0,6,0.00
2013-7-13,91.3,68.6,53.1,53.4,48.1,44.4,75,52,22,29.82,29.67,5,0,5,0.00
2013-7-14,102.1,79.6,58.5,56.0,53.6,50.8,76,44,20,29.75,29.60,5,1,5,0.00
2013-7-15,97.4,78.3,57.8,59.4,53.6,45.0,67,44,25,29.67,29.45,5,1,5,0.00
2013-7-16,94.3,75.7,63.5,65.0,57.4,52.6,71,54,35,29.67,29.45,5,1,5,0.00
2013-7-17,93.1,72.9,62.3,60.4,55.8,52.6,74,57,32,29.83,29.67,5,0,5,0.00
2013-7-18,99.4,75.5,55.8,62.5,57.6,50.1,85,58,27,29.86,29.71,4,0,4,0.00
2013-7-19,97.4,74.5,55.4,65.8,58.8,50.3,85,60,34,29.81,29.65,5,0,5,0.00
2013-7-20,97.2,69.5,55.4,66.6,57.2,50.4,87,67,36,29.75,29.59,5,0,5,0.00
2013-7-21,98.5,76.5,56.3,64.6,58.7,51.5,85,57,31,29.65,29.53,5,1,5,0.00
2013-7-22,78.3,67.9,61.4,57.2,55.8,54.8,79,67,48,29.63,29.60,1,0,1,0.00
2013-7-23,102.6,78.8,58.3,63.3,59.2,52.2,84,55,23,29.70,29.57,5,0,5,0.00
2013-7-24,105.3,82.2,59.8,61.1,56.6,50.0,79,46,18,29.70,29.60,5,0,5,0.00
2013-7-25,100.3,82.1,63.4,57.2,53.7,44.4,73,41,19,29.73,29.63,5,0,5,0.00
2013-7-26,102.2,77.9,57.8,59.1,52.7,46.6,70,44,24,29.80,29.66,5,0,5,0.00
2013-7-27,92.9,69.4,55.6,56.3,49.6,45.2,77,52,27,29.85,29.66,3,0,5,0.00
2013-7-28,89.3,65.9,50.2,58.7,51.1,44.3,84,61,33,29.74,29.61,4,0,4,0.00
2013-7-29,90.0,71.8,55.8,59.2,54.5,50.1,81,56,34,29.67,29.60,4,1,4,0.00
2013-7-30,87.8,71.9,52.2,60.9,56.7,47.2,86,61,39,29.81,29.65,5,0,5,0.00
2013-7-31,83.5,71.0,58.1,62.6,58.3,53.6,85,66,46,29.79,29.69,5,1,5,0.00
2013-8-1,69.7,66.2,61.0,57.8,55.9,54.0,78,69,65,29.80,29.73,4,0,4,0.00
2013-8-2,81.0,68.2,59.6,59.7,55.7,53.6,82,65,47,29.82,29.74,4,0,4,0.00
2013-8-3,94.0,69.8,57.1,62.7,57.6,53.4,89,68,32,29.78,29.63,4,0,4,0.00
2013-8-4,101.5,75.3,59.6,63.9,59.8,54.3,86,62,29,29.69,29.54,4,0,4,0.00
2013-8-5,100.3,77.5,58.3,63.4,59.4,52.7,84,57,29,29.68,29.55,4,0,4,0.00
2013-8-6,101.3,79.5,58.0,60.3,52.5,45.1,79,45,17,29.66,29.54,5,0,5,0.00
2013-8-7,81.4,69.1,58.3,60.2,55.0,49.9,75,62,45,29.70,29.58,5,0,5,0.00
2013-8-8,95.2,72.5,56.5,66.2,58.2,51.4,84,63,38,29.73,29.55,4,0,4,0.00
2013-8-9,85.9,74.9,64.4,62.8,60.4,57.7,82,62,40,29.60,29.48,5,0,5,0.00
2013-8-10,80.3,70.9,59.8,63.4,59.7,54.6,84,68,54,29.72,29.63,5,1,5,0.00
2013-8-11,87.8,69.7,60.8,64.5,58.5,54.7,82,68,44,29.74,29.64,4,0,4,0.00
2013-8-12,84.4,68.9,61.4,62.8,58.1,53.6,82,70,47,29.74,29.67,3,0,3,0.00
2013-8-13,95.8,71.5,51.8,61.5,54.8,47.5,88,59,27,29.77,29.57,4,0,4,0.00
2013-8-14,87.7,75.0,56.9,59.6,56.4,50.8,83,55,30,29.64,29.57,4,1,4,0.00
2013-8-15,82.8,75.8,65.2,68.1,64.8,58.9,81,69,60,29.63,29.59,3,0,3,0.00
2013-8-16,86.0,74.1,66.6,69.1,63.4,56.1,85,71,49,29.70,29.62,5,0,5,0.00
2013-8-17,86.0,77.9,67.1,63.5,59.7,56.3,69,55,40,29.75,29.66,6,1,6,0.00
2013-8-18,93.1,74.8,58.0,64.5,59.7,54.1,88,61,36,29.80,29.67,5,0,5,0.00
2013-8-19,91.4,73.2,61.7,61.6,58.3,55.1,82,62,36,29.78,29.67,4,0,4,0.00
2013-8-20,89.5,72.1,55.1,56.6,52.0,47.5,79,52,25,29.79,29.60,5,0,5,0.00
2013-8-21,89.5,75.8,60.3,60.9,55.5,51.3,73,51,35,29.66,29.49,5,0,5,0.00
2013-8-29,77.0,70.6,64.3,68.8,63.5,60.2,89,79,66,29.74,29.51,8,1,8,0.00
2013-8-30,81.9,73.7,61.7,65.1,60.5,56.8,91,65,47,29.81,29.68,4,0,4,0.00
2013-8-31,86.6,75.8,57.4,62.8,59.8,52.6,88,60,41,29.70,29.47,4,1,4,0.00
2013-9-1,83.9,71.4,56.2,60.6,55.9,51.7,99,61,38,29.58,29.45,5,1,5,0.00
2013-9-2,80.3,73.8,64.1,65.1,56.1,31.0,98,56,24,29.59,29.53,4,1,4,0.00
2013-9-3,81.2,74.1,63.2,64.7,48.3,13.9,99,46,1,29.65,29.59,5,1,5,0.00
2013-9-4,79.6,75.1,69.1,55.5,36.0,-15.9,62,27,1,29.68,29.65,0,0,0,0.00
2013-9-5,95.4,80.6,74.7,95.0,80.2,74.4,99,99,99,29.67,29.66,2,0,2,0.00
2013-9-15,50.2,-11.7,-39.2,50.0,-12.9,-46.4,99,94,65,29.55,29.49,2,0,2,0.00
2013-9-16,-39.2,-39.2,-39.2,-40.8,-42.6,-46.6,91,82,64,29.65,29.61,3,0,3,0.00
2013-9-20,72.7,61.8,50.6,60.5,55.9,47.3,92,82,63,29.40,29.33,7,0,7,0.00
2013-9-21,70.0,63.8,57.4,60.8,57.4,55.0,94,80,62,29.45,29.35,4,0,5,0.00
2013-9-22,64.4,60.7,57.1,59.9,56.0,53.8,90,85,73,29.51,29.37,8,1,8,0.00
2013-9-23,67.0,61.5,57.6,60.4,57.3,54.7,92,86,75,29.66,29.51,6,0,6,0.00
2013-9-24,64.3,57.9,52.7,57.7,54.1,50.4,93,87,74,29.66,29.53,4,0,4,0.00
2013-9-25,63.4,56.0,51.1,54.3,51.2,48.5,93,85,67,29.68,29.53,4,0,4,0.00
2013-9-28,67.1,61.8,54.9,61.2,57.8,52.2,92,87,79,29.44,29.19,7,2,7,0.00
2013-9-29,61.4,57.3,54.9,58.0,54.7,52.6,95,91,85,29.39,29.11,9,2,9,0.00
2013-9-30,61.7,57.0,52.7,57.5,52.9,49.9,92,86,78,29.68,29.25,7,1,7,0.00
2013-10-1,61.9,56.4,47.9,55.4,50.1,43.9,94,80,61,29.85,29.68,8,0,8,0.00
2013-10-2,58.9,51.9,44.1,54.0,48.1,42.2,94,87,78,29.85,29.73,5,0,5,0.00
2013-10-3,47.7,47.4,47.2,45.6,43.7,43.0,93,87,85,30.06,29.82,0,0,0,0.00
2013-10-4,62.1,52.7,43.7,53.4,48.1,41.9,94,85,70,30.11,29.97,4,0,4,0.00
2013-10-5,47.9,47.9,47.9,45.2,45.2,45.2,90,90,90,29.98,29.98,0,0,0,0.00
2013-10-9,63.2,53.6,45.9,51.3,46.5,42.9,92,78,60,29.75,29.62,4,0,4,0.00
2013-10-10,65.0,57.0,46.3,55.0,50.3,43.3,91,79,62,29.75,29.63,4,0,4,0.00
2013-10-11,62.6,54.8,48.6,51.7,47.9,42.8,91,78,59,29.80,29.74,2,0,2,0.00
2013-10-12,62.5,54.6,47.9,54.7,48.6,43.0,90,81,69,29.80,29.72,3,0,3,0.00
2013-10-13,60.5,53.3,47.5,51.8,48.1,45.1,92,83,72,29.93,29.80,4,0,4,0.00
2013-10-14,53.5,46.7,42.1,48.4,43.4,39.0,92,88,82,30.00,29.92,1,0,1,0.00
2013-10-15,63.4,56.9,52.2,46.5,44.2,42.1,69,63,54,29.77,29.76,0,0,0,0.00
2013-10-16,66.2,55.2,40.7,53.3,47.5,36.8,91,76,61,29.80,29.74,3,0,3,0.00
2013-10-17,62.3,52.1,40.1,53.3,47.3,37.7,93,84,70,29.88,29.77,2,0,2,0.00
2013-10-18,68.0,53.4,38.7,52.6,45.7,36.2,94,77,53,29.82,29.71,3,0,3,0.00
2013-10-19,66.2,56.7,46.1,55.5,50.4,43.8,93,80,66,29.82,29.73,2,0,2,0.00
2013-10-20,65.2,55.2,43.0,55.6,50.0,41.1,95,83,70,29.81,29.69,2,0,2,0.00
2013-10-21,67.0,54.2,41.8,57.2,49.3,39.6,94,84,68,29.73,29.60,2,0,2,0.00
2013-10-22,69.5,55.9,46.1,58.1,51.1,44.3,94,85,66,29.69,29.58,1,0,1,0.00
2013-10-23,66.6,53.5,45.0,59.6,50.1,42.6,94,89,76,29.65,29.57,1,0,1,0.00
2013-10-24,61.7,56.0,49.9,56.2,52.4,46.9,95,88,82,29.71,29.61,2,0,2,0.00
2013-10-25,56.2,53.6,50.0,53.5,51.4,47.4,95,93,89,29.88,29.71,1,0,1,0.00
2013-10-26,54.0,52.6,51.7,51.1,49.8,49.1,93,90,89,29.91,29.79,2,0,2,0.00
2013-10-27,59.6,53.8,48.4,55.8,48.8,43.1,92,83,75,29.79,29.43,4,0,4,0.00
2013-10-28,59.8,51.6,44.6,46.7,42.5,36.4,89,72,53,29.47,29.39,0,0,0,0.00
2013-10-29,57.6,45.2,32.8,42.7,36.0,29.0,90,72,49,29.64,29.47,0,0,0,0.00
2013-10-30,60.1,54.3,38.5,47.5,45.3,32.9,89,72,59,29.79,29.64,2,0,2,0.00
2013-10-31,63.9,56.1,50.0,58.0,51.3,46.5,90,84,78,29.82,29.76,0,0,0,0.00
2013-11-1,59.4,54.6,49.9,53.3,50.8,47.0,94,87,79,29.84,29.48,0,0,0,0.00
2013-11-2,56.7,52.4,45.4,52.7,48.2,42.0,94,86,68,29.66,29.34,7,1,7,0.00
2013-11-3,55.6,50.0,42.3,48.7,45.6,40.1,94,85,75,29.74,29.69,4,0,4,0.00
2013-11-4,54.2,50.7,46.6,49.1,47.2,44.5,93,88,80,29.74,29.67,5,1,5,0.00
2013-11-5,59.2,55.3,50.6,56.3,52.6,48.0,94,91,87,29.78,29.66,5,0,5,0.00
2013-11-6,59.9,56.6,54.4,58.0,54.8,52.5,95,94,91,29.81,29.65,1,0,1,0.00
2013-11-7,55.1,48.6,46.1,53.6,45.5,43.4,95,89,85,29.68,29.64,0,0,0,0.00
2013-11-8,56.7,51.7,46.1,51.4,48.3,43.7,93,88,80,29.75,29.63,0,0,0,0.00
2013-11-9,52.6,49.5,46.4,48.8,46.4,44.6,93,89,86,29.63,29.56,0,0,0,0.00
2013-11-10,56.0,49.3,43.2,51.5,46.5,41.3,95,90,84,29.62,29.34,0,0,0,0.00
2013-11-11,54.0,48.8,44.8,51.0,46.9,42.4,96,93,89,29.68,29.19,0,0,0,0.00
2013-11-12,49.3,49.2,49.0,47.9,47.8,47.6,95,95,95,29.73,29.52,0,0,0,0.00
2013-11-13,55.4,52.5,50.0,53.1,50.4,47.8,95,92,88,30.14,29.97,0,0,0,0.00
2013-11-14,55.6,52.1,48.4,50.6,48.6,46.8,94,88,80,29.97,29.78,0,0,0,0.00
2013-11-15,52.4,48.9,43.4,48.9,46.4,41.8,95,91,86,29.78,29.36,6,0,6,0.00
2013-11-16,54.7,50.3,46.6,48.8,45.7,44.1,94,84,73,29.55,29.34,5,0,5,0.00
2013-11-17,55.8,52.9,48.2,49.5,47.7,44.9,91,83,78,29.69,29.55,7,1,7,0.00
2013-11-18,56.0,52.3,48.1,51.9,47.5,43.7,92,84,73,29.67,29.42,6,1,6,0.00
2013-11-19,55.8,50.8,44.6,53.8,47.9,40.7,93,90,87,29.66,29.45,4,0,4,0.00
2013-11-20,47.7,41.1,35.5,40.7,34.7,29.7,88,78,69,29.98,29.66,2,0,3,0.00
2013-11-21,47.3,41.2,32.6,29.7,24.9,21.1,74,53,42,30.19,29.98,2,0,2,0.00
2013-11-22,49.7,40.8,25.4,30.3,26.7,20.1,84,58,44,30.21,30.04,0,0,0,0.00
2013-11-23,55.8,42.3,28.4,35.4,28.6,21.6,82,60,41,30.04,29.81,0,0,0,0.00
2013-11-24,49.1,36.7,28.3,35.3,28.6,23.2,84,73,57,29.92,29.82,0,0,0,0.00
2013-11-25,49.1,39.1,27.2,39.1,33.2,23.8,90,80,68,30.02,29.92,0,0,0,0.00
2013-11-26,50.0,40.8,31.3,44.4,37.0,28.5,92,86,78,29.95,29.76,0,0,0,0.00
2013-11-27,49.3,41.9,33.7,41.9,37.2,31.2,92,84,75,29.75,29.61,0,0,0,0.00
2013-11-28,50.0,39.3,30.1,41.5,34.7,27.3,92,84,72,29.86,29.65,0,0,0,0.00
2013-11-29,47.5,40.8,31.5,43.0,37.6,29.3,93,88,83,30.04,29.86,2,0,2,0.00
2013-11-30,53.5,47.9,40.5,48.8,44.6,38.4,93,88,83,30.07,29.91,4,0,4,0.00
2013-12-1,60.1,54.8,50.0,57.3,52.2,46.7,95,91,84,29.92,29.65,8,2,8,0.00
2013-12-2,53.8,53.8,53.8,52.4,52.4,52.2,95,95,95,29.65,29.64,2,1,4,0.00
2013-12-6,32.9,30.3,28.1,28.4,23.8,20.5,83,76,73,29.67,29.61,0,0,0,0.00
2013-12-7,30.8,25.4,20.0,20.5,14.4,10.2,73,63,54,30.07,29.67,2,0,2,0.00
2013-12-8,28.4,21.5,8.6,20.6,14.6,3.8,82,75,64,30.23,30.07,2,0,2,0.00
2013-12-9,31.7,23.3,11.2,24.5,17.9,6.9,86,80,74,30.30,30.20,3,0,3,0.00
2013-12-10,36.5,28.9,23.2,29.7,24.1,19.2,86,82,75,30.21,30.07,3,0,3,0.00
2013-12-11,35.8,27.7,20.5,31.2,23.8,17.2,89,85,81,30.09,29.89,2,0,2,0.00
2013-12-12,40.3,33.9,22.5,38.4,31.3,20.0,93,90,88,29.90,29.79,2,0,2,0.00
2013-12-13,52.0,43.6,38.5,48.7,41.4,35.8,94,92,88,30.11,29.89,2,0,2,0.00
2013-12-14,44.6,42.2,39.1,42.5,40.2,37.4,95,93,90,30.12,30.04,3,0,3,0.00
2013-12-15,51.3,48.3,41.9,47.2,45.1,40.1,93,89,85,30.15,30.09,1,0,1,0.00
2013-12-16,48.2,44.7,42.3,45.8,42.8,40.4,95,93,90,30.14,29.92,1,0,1,0.00
2013-12-17,45.0,41.1,39.2,42.7,39.1,37.4,95,93,89,29.92,29.84,3,0,3,0.00
2013-12-18,46.1,41.6,36.9,43.5,39.6,34.6,95,93,89,29.87,29.72,2,0,2,0.00
2013-12-19,40.5,35.6,32.4,36.7,33.1,30.3,94,91,86,29.99,29.80,2,0,2,0.00
2013-12-20,46.1,39.6,34.7,44.5,37.3,32.3,94,91,85,29.91,29.61,9,1,9,0.00
2013-12-22,58.7,51.1,43.9,53.2,47.9,41.5,93,89,79,30.04,29.96,3,0,3,0.00
2013-12-23,54.5,47.9,36.7,52.6,45.9,34.6,95,93,85,30.21,30.01,4,0,4,0.00
2013-12-24,45.0,37.5,33.5,42.9,35.7,31.3,96,94,91,30.26,30.15,2,0,2,0.00
2013-12-25,42.5,38.6,36.4,39.8,36.6,34.6,94,93,89,30.15,30.07,2,0,2,0.00
2013-12-26,37.8,35.9,34.4,35.9,34.2,32.6,95,94,92,30.07,29.91,1,0,1,0.00
2013-12-27,40.9,36.4,33.7,39.0,34.7,31.8,95,94,91,30.06,29.88,2,0,2,0.00
2013-12-28,47.2,40.3,34.4,43.7,38.1,32.8,96,92,85,30.18,30.06,2,0,2,0.00
2013-12-29,45.4,42.0,38.7,41.4,39.0,36.0,93,89,85,30.13,29.96,2,0,2,0.00
2013-12-30,45.7,40.4,36.9,42.4,38.1,34.7,94,92,87,29.96,29.86,3,0,3,0.00
2013-12-31,52.9,42.3,37.1,48.2,39.8,34.9,95,91,81,30.01,29.90,2,0,2,0.00
2014-1-1,43.6,41.0,35.8,42.0,39.3,33.9,95,94,91,30.04,29.93,2,0,2,0.00
2014-1-2,46.3,42.3,38.7,44.5,40.5,36.9,95,93,90,29.94,29.74,4,0,4,0.00